Weather History for Inverness, FL

Change the Weather History Date:

Tuesday, March 27, 2012

  Actual Average (KOCF) Record (KOCF)
Temperature  
Mean Temperature 68 °F -  
Max Temperature 86 °F 76 °F 87 °F (2005)
Min Temperature 51 °F 51 °F 30 °F (2006)
Cooling Degree Days 4    
Growing Degree Days 18 (Base 50)    
Moisture  
Dew Point 53 °F    
Average Humidity 64    
Maximum Humidity 100    
Minimum Humidity 25    
Precipitation  
Precipitation 0.00 in - - ()
Sea Level Pressure  
Sea Level Pressure 30.13 in    
Wind  
Wind Speed 2 mph ()    
Max Wind Speed 12 mph    
Max Gust Speed 22 mph    
Visibility 8.7 miles    
Events      
Averages and records for this station are not official NWS values.
T = Trace of Precipitation, MM = Missing Value Source: Averaged Metar Reports

Daily Weather History Graph

Daily Weather History Graph

Search for Another Location

Airport:

Trip Planner

Search our weather history database for the weather conditions in past years. The results will help you decide how hot, cold, wet, or windy it might be!

Date:

Astronomy

Mar. 27, 2012 Rise Set
Actual Time 7:24 AM EDT 7:44 PM EDT
Civil Twilight 7:00 AM EDT 8:08 PM EDT
Nautical Twilight 6:33 AM EDT 8:36 PM EDT
Astronomical Twilight 6:05 AM EDT 9:04 PM EDT
Moon 10:17 AM EDT (3/27) No Moon Set
Length of Visible Light 13h 07m
Length of Day
12h 20m
Waxing Crescent, 22% of the Moon is Illuminated
Mar 27
Waxing Crescent
Mar 30
First Quarter
Apr 6
Full
Apr 13
Last Quarter
Apr 21
New

Hourly Weather History & Observations

Time (EDT) Temp. Heat Index Dew Point Humidity Pressure Visibility Wind Dir Wind Speed Gust Speed Precip Events Conditions
12:15 AM 59.0 °F - 55.4 °F 88% 30.06 in 10.0 mi Calm Calm - N/A   Clear
12:35 AM 59.0 °F - 55.4 °F 88% 30.06 in 10.0 mi Calm Calm - N/A   Clear
12:55 AM 59.0 °F - 55.4 °F 88% 30.06 in 10.0 mi Calm Calm - N/A   Mostly Cloudy
1:15 AM 59.0 °F - 55.4 °F 88% 30.05 in 10.0 mi Calm Calm - N/A   Scattered Clouds
1:35 AM 57.2 °F - 55.4 °F 94% 30.05 in 10.0 mi Calm Calm - N/A   Clear
1:55 AM 57.2 °F - 55.4 °F 94% 30.05 in 10.0 mi Calm Calm - N/A   Clear
2:15 AM 55.4 °F - 55.4 °F 100% 30.05 in 10.0 mi Calm Calm - N/A   Clear
2:35 AM 55.4 °F - 53.6 °F 94% 30.05 in 10.0 mi Calm Calm - N/A   Clear
2:55 AM 55.4 °F - 53.6 °F 94% 30.05 in 10.0 mi Calm Calm - N/A   Clear
3:15 AM 55.4 °F - 55.4 °F 100% 30.05 in 10.0 mi Calm Calm - N/A   Clear
3:35 AM 55.4 °F - 53.6 °F 94% 30.05 in 10.0 mi Calm Calm - N/A   Clear
3:55 AM 53.6 °F - 53.6 °F 100% 30.05 in 7.0 mi Calm Calm - N/A   Clear
4:15 AM 53.6 °F - 53.6 °F 100% 30.05 in 7.0 mi Calm Calm - N/A   Clear
4:35 AM 53.6 °F - 53.6 °F 100% 30.06 in 7.0 mi Calm Calm - N/A   Clear
4:55 AM 53.6 °F - 53.6 °F 100% 30.06 in 7.0 mi Calm Calm - N/A   Clear
5:15 AM 53.6 °F - 53.6 °F 100% 30.06 in 7.0 mi Calm Calm - N/A   Clear
5:35 AM 53.6 °F - 51.8 °F 94% 30.06 in 7.0 mi Calm Calm - N/A   Clear
5:55 AM 53.6 °F - 51.8 °F 94% 30.07 in 7.0 mi Calm Calm - N/A   Clear
6:15 AM 51.8 °F - 51.8 °F 100% 30.08 in 7.0 mi Calm Calm - N/A   Clear
6:35 AM 51.8 °F - 51.8 °F 100% 30.08 in 5.0 mi Calm Calm - N/A   Clear
6:55 AM 51.8 °F - 51.8 °F 100% 30.09 in 10.0 mi Calm Calm - N/A   Clear
7:15 AM 51.8 °F - 51.8 °F 100% 30.10 in 7.0 mi Calm Calm - N/A   Clear
7:35 AM 51.8 °F - 51.8 °F 100% 30.11 in 5.0 mi Calm Calm - N/A   Clear
7:55 AM 51.8 °F - 51.8 °F 100% 30.12 in 7.0 mi Calm Calm - N/A   Clear
8:15 AM 53.6 °F - 53.6 °F 100% 30.13 in 10.0 mi Calm Calm - N/A   Clear
8:35 AM 55.4 °F - 55.4 °F 100% 30.14 in 10.0 mi Calm Calm - N/A   Clear
8:55 AM 60.8 °F - 59.0 °F 94% 30.15 in 10.0 mi Calm Calm - N/A   Clear
9:15 AM 64.4 °F - 59.0 °F 83% 30.15 in 10.0 mi Calm Calm - N/A   Clear
9:35 AM 68.0 °F - 59.0 °F 73% 30.15 in 10.0 mi Calm Calm - N/A   Clear
9:55 AM 71.6 °F - 57.2 °F 60% 30.16 in 10.0 mi Calm Calm - N/A   Clear
10:15 AM 73.4 °F - 55.4 °F 53% 30.16 in 10.0 mi NE 5.8 mph - N/A   Clear
10:35 AM 73.4 °F - 57.2 °F 57% 30.17 in 10.0 mi SE 4.6 mph - N/A   Clear
10:55 AM 77.0 °F - 59.0 °F 54% 30.18 in 10.0 mi ESE 10.4 mph - N/A   Clear
11:15 AM 77.0 °F - 59.0 °F 54% 30.18 in 10.0 mi ESE 9.2 mph - N/A   Clear
11:35 AM 77.0 °F - 57.2 °F 50% 30.18 in 7.0 mi SE 4.6 mph - N/A   Clear
11:55 AM 78.8 °F - 55.4 °F 44% 30.18 in 7.0 mi SE 6.9 mph - N/A   Clear
12:15 PM 78.8 °F - 55.4 °F 44% 30.19 in 10.0 mi ENE 6.9 mph - N/A   Clear
12:55 PM 80.6 °F 80.5 °F 55.4 °F 42% 30.17 in 7.0 mi East 5.8 mph - N/A   Scattered Clouds
1:15 PM 80.6 °F 80.5 °F 55.4 °F 42% 30.17 in 10.0 mi East 5.8 mph - N/A   Scattered Clouds
1:35 PM 82.4 °F - 51.8 °F 35% 30.16 in 7.0 mi East 4.6 mph - N/A   Scattered Clouds
1:55 PM 82.4 °F - 51.8 °F 35% 30.16 in 7.0 mi East 6.9 mph - N/A   Scattered Clouds
2:15 PM 82.4 °F - 51.8 °F 35% 30.15 in 7.0 mi East 9.2 mph - N/A   Scattered Clouds
2:35 PM 82.4 °F - 50.0 °F 32% 30.15 in 7.0 mi East 10.4 mph 21.9 mph N/A   Scattered Clouds
2:55 PM 84.2 °F - 50.0 °F 30% 30.15 in 7.0 mi East 8.1 mph - N/A   Clear
3:15 PM 86.0 °F - 50.0 °F 29% 30.14 in 7.0 mi East 9.2 mph - N/A   Clear
3:35 PM 86.0 °F - 48.2 °F 27% 30.13 in 10.0 mi East 11.5 mph 18.4 mph N/A   Clear
3:55 PM 86.0 °F - 46.4 °F 25% 30.13 in 7.0 mi ENE 10.4 mph 19.6 mph N/A   Clear
4:15 PM 86.0 °F - 50.0 °F 29% 30.12 in 7.0 mi ESE 5.8 mph - N/A   Clear
4:35 PM 86.0 °F - 48.2 °F 27% 30.12 in 7.0 mi ENE 6.9 mph - N/A   Clear
4:55 PM 86.0 °F - 50.0 °F 29% 30.12 in 7.0 mi East 9.2 mph - N/A   Clear
5:15 PM 86.0 °F - 48.2 °F 27% 30.12 in 7.0 mi East 10.4 mph - N/A   Clear
5:35 PM 84.2 °F - 48.2 °F 29% 30.12 in 7.0 mi East 6.9 mph - N/A   Clear
5:55 PM 84.2 °F - 46.4 °F 27% 30.12 in 7.0 mi ESE 6.9 mph - N/A   Clear
6:15 PM 82.4 °F - 48.2 °F 30% 30.12 in 7.0 mi East 11.5 mph - N/A   Clear
6:35 PM 82.4 °F - 46.4 °F 28% 30.12 in 7.0 mi East 9.2 mph - N/A   Clear
6:55 PM 80.6 °F - 48.2 °F 32% 30.13 in 10.0 mi East 5.8 mph - N/A   Clear
7:15 PM 78.8 °F - 48.2 °F 34% 30.13 in 10.0 mi East 3.5 mph - N/A   Clear
7:35 PM 78.8 °F - 46.4 °F 32% 30.13 in 10.0 mi East 6.9 mph - N/A   Clear
7:55 PM 77.0 °F - 46.4 °F 34% 30.14 in 10.0 mi East 5.8 mph - N/A   Clear
8:15 PM 75.2 °F - 46.4 °F 36% 30.15 in 10.0 mi East 4.6 mph - N/A   Clear
8:35 PM 73.4 °F - 48.2 °F 41% 30.16 in 10.0 mi ESE 3.5 mph - N/A   Clear
8:55 PM 71.6 °F - 50.0 °F 46% 30.17 in 10.0 mi Calm Calm - N/A   Clear
9:15 PM 71.6 °F - 50.0 °F 46% 30.18 in 10.0 mi ESE 3.5 mph - N/A   Clear
9:35 PM 71.6 °F - 51.8 °F 50% 30.19 in 10.0 mi ESE 4.6 mph - N/A   Clear
9:55 PM 69.8 °F - 51.8 °F 53% 30.20 in 10.0 mi ESE 3.5 mph - N/A   Clear
10:15 PM 69.8 °F - 53.6 °F 56% 30.20 in 10.0 mi Calm Calm - N/A   Clear
10:35 PM 68.0 °F - 53.6 °F 60% 30.21 in 10.0 mi Calm Calm - N/A   Clear
10:55 PM 68.0 °F - 53.6 °F 60% 30.21 in 10.0 mi Calm Calm - N/A   Clear
11:15 PM 64.4 °F - 55.4 °F 73% 30.22 in 10.0 mi Calm Calm - N/A   Clear
11:35 PM 66.2 °F - 55.4 °F 68% 30.22 in 10.0 mi Calm Calm - N/A   Clear
11:55 PM 66.2 °F - 55.4 °F 68% 30.22 in 10.0 mi Calm Calm - N/A   Clear